Time;durP1;ratioP1;P1;durP2;ratioP2;P2;SDS_P1;SDS_P2;PMS_P1;PMS_P2;Temp;Humidity;BMP_temperature;BMP_pressure;BME280_temperature;BME280_humidity;BME280_pressure;Samples;Min_cycle;Max_cycle;Signal;HPM_P1;HPM_P2
2022/10/01 00:00:19;;;;;;;964.13;899.25;;;;;;;-146.32;100.00;63746.28;691545;28;45265;-62
2022/10/01 00:00:45;;;;;;;958.10;893.50;;;;;;;-146.32;100.00;63746.28;691570;28;44410;-63
2022/10/01 00:01:09;;;;;;;961.58;896.88;;;;;;;-146.32;100.00;63746.28;688428;28;138071;-61
2022/10/01 00:01:33;;;;;;;966.03;901.22;;;;;;;-146.32;100.00;63746.28;689817;28;92539;-60
2022/10/01 00:01:55;;;;;;;967.75;902.83;;;;;;;-146.32;100.00;63746.28;689030;28;92024;-61
2022/10/01 00:02:16;;;;;;;965.70;900.80;;;;;;;-146.32;100.00;63746.28;692393;28;23135;-63
2022/10/01 00:02:37;;;;;;;965.65;900.85;;;;;;;-146.32;100.00;63746.28;692535;28;22166;-60
2022/10/01 00:02:59;;;;;;;961.70;897.10;;;;;;;-146.32;100.00;63746.28;691757;28;46300;-60
2022/10/01 00:03:22;;;;;;;965.28;900.53;;;;;;;-146.32;100.00;63746.28;691868;28;45227;-62
2022/10/01 00:03:44;;;;;;;959.92;895.40;;;;;;;-146.32;100.00;63746.28;690975;28;69424;-61
2022/10/01 00:04:05;;;;;;;957.00;892.45;;;;;;;-146.32;100.00;63746.28;691892;28;47458;-61
2022/10/01 00:04:26;;;;;;;963.33;898.55;;;;;;;-146.32;100.00;63746.28;692488;28;22367;-62
2022/10/01 00:04:49;;;;;;;966.53;901.70;;;;;;;-146.32;100.00;63746.28;692587;28;22382;-62
2022/10/01 00:05:10;;;;;;;959.90;895.35;;;;;;;-146.32;100.00;63746.28;691087;28;69297;-61
2022/10/01 00:05:32;;;;;;;958.13;893.63;;;;;;;-146.32;100.00;63746.28;692740;28;22162;-60
2022/10/01 00:05:59;;;;;;;956.10;891.67;;;;;;;-146.32;100.00;63746.28;693095;28;22263;-62
2022/10/01 00:06:21;;;;;;;960.88;896.33;;;;;;;-146.32;100.00;63746.28;688769;28;151028;-62
2022/10/01 00:06:46;;;;;;;972.20;907.22;;;;;;;-146.32;100.00;63746.28;691868;28;61769;-62
2022/10/01 00:07:13;;;;;;;966.95;901.85;;;;;;;-146.32;100.00;63746.28;691194;28;44291;-62
2022/10/01 00:07:36;;;;;;;965.03;900.15;;;;;;;-146.32;100.00;63746.28;689219;28;136113;-60
2022/10/01 00:07:57;;;;;;;957.13;892.60;;;;;;;-146.32;100.00;63746.28;688788;28;67472;-62
2022/10/01 00:08:20;;;;;;;946.83;882.63;;;;;;;-146.32;100.00;63746.28;690392;28;21291;-62
2022/10/01 00:08:41;;;;;;;949.42;885.22;;;;;;;-146.32;100.00;63746.28;689668;28;69496;-62
2022/10/01 00:09:03;;;;;;;957.58;893.17;;;;;;;-146.32;100.00;63746.28;693030;28;23424;-62
2022/10/01 00:09:24;;;;;;;960.00;895.50;;;;;;;-146.32;100.00;63746.28;692225;28;44379;-61
2022/10/01 00:09:46;;;;;;;961.10;896.58;;;;;;;-146.32;100.00;63746.28;693184;28;23500;-60
2022/10/01 00:10:09;;;;;;;962.92;898.30;;;;;;;-146.32;100.00;63746.28;692301;28;46468;-63
2022/10/01 00:10:31;;;;;;;960.25;895.67;;;;;;;-146.32;100.00;63746.28;691551;28;67466;-61
2022/10/01 00:10:52;;;;;;;962.40;897.78;;;;;;;-146.32;100.00;63746.28;692334;28;44339;-62
2022/10/01 00:11:15;;;;;;;961.67;896.97;;;;;;;-146.32;100.00;63746.28;693067;28;21545;-62
2022/10/01 00:11:38;;;;;;;954.17;889.78;;;;;;;-146.32;100.00;63746.28;690733;28;92114;-61
2022/10/01 00:11:59;;;;;;;967.72;902.83;;;;;;;-146.32;100.00;63746.28;691553;28;45271;-62
2022/10/01 00:12:20;;;;;;;969.70;904.80;;;;;;;-146.32;100.00;63746.28;693124;28;21299;-61
2022/10/01 00:12:45;;;;;;;968.00;903.20;;;;;;;-146.32;100.00;63746.28;693187;28;21517;-62
2022/10/01 00:13:08;;;;;;;966.88;902.08;;;;;;;-146.32;100.00;63746.28;689799;28;113553;-62
2022/10/01 00:13:29;;;;;;;966.38;901.58;;;;;;;-146.32;100.00;63746.28;691475;28;67470;-60
2022/10/01 00:13:51;;;;;;;963.75;899.05;;;;;;;-146.32;100.00;63746.28;693197;28;22410;-62
2022/10/01 00:14:12;;;;;;;957.70;893.28;;;;;;;-146.32;100.00;63746.28;692193;28;46391;-62
2022/10/01 00:14:37;;;;;;;946.42;882.33;;;;;;;-146.32;100.00;63746.28;692306;28;45248;-62
2022/10/01 00:14:59;;;;;;;966.33;901.47;;;;;;;-146.32;100.00;63746.28;689972;28;113531;-61
2022/10/01 00:15:20;;;;;;;968.20;903.30;;;;;;;-146.32;100.00;63746.28;693519;28;1024;-62
2022/10/01 00:15:41;;;;;;;960.53;895.90;;;;;;;-146.32;100.00;63746.28;691748;28;46423;-62
2022/10/01 00:16:07;;;;;;;964.35;899.65;;;;;;;-146.32;100.00;63746.28;690222;28;23457;-62
2022/10/01 00:16:30;;;;;;;964.28;899.47;;;;;;;-146.32;100.00;63746.28;688187;28;115853;-62
2022/10/01 00:16:53;;;;;;;959.63;895.00;;;;;;;-146.32;100.00;63746.28;690155;28;67510;-62
2022/10/01 00:17:14;;;;;;;964.45;899.63;;;;;;;-146.32;100.00;63746.28;691116;28;67311;-62
2022/10/01 00:17:35;;;;;;;968.35;903.35;;;;;;;-146.32;100.00;63746.28;691545;28;21256;-62
2022/10/01 00:17:58;;;;;;;965.88;900.97;;;;;;;-146.32;100.00;63746.28;692110;28;45202;-62
2022/10/01 00:18:19;;;;;;;967.10;902.20;;;;;;;-146.32;100.00;63746.28;692086;28;44430;-63
2022/10/01 00:18:42;;;;;;;964.58;899.80;;;;;;;-146.32;100.00;63746.28;692595;28;23501;-63
2022/10/01 00:19:03;;;;;;;963.33;898.72;;;;;;;-146.32;100.00;63746.28;691298;28;68899;-61
2022/10/01 00:19:25;;;;;;;960.97;896.53;;;;;;;-146.32;100.00;63746.28;691139;28;45229;-62
2022/10/01 00:19:47;;;;;;;950.10;885.95;;;;;;;-146.32;100.00;63746.28;689836;28;46396;-62
2022/10/01 00:20:09;;;;;;;954.45;890.08;;;;;;;-146.32;100.00;63746.28;690462;28;22371;-61
2022/10/01 00:20:31;;;;;;;961.80;897.15;;;;;;;-146.32;100.00;63746.28;688812;28;67486;-62
2022/10/01 00:20:52;;;;;;;962.65;897.97;;;;;;;-146.32;100.00;63746.28;693044;28;23518;-62
2022/10/01 00:21:16;;;;;;;962.35;897.70;;;;;;;-146.32;100.00;63746.28;693081;28;23482;-62
2022/10/01 00:21:37;;;;;;;962.55;897.90;;;;;;;-146.32;100.00;63746.28;689724;28;115896;-63
2022/10/01 00:21:59;;;;;;;957.53;892.95;;;;;;;-146.32;100.00;63746.28;692046;28;23406;-60
2022/10/01 00:22:20;;;;;;;963.85;899.08;;;;;;;-146.32;100.00;63746.28;692783;28;21624;-63
2022/10/01 00:22:42;;;;;;;964.13;899.10;;;;;;;-146.32;100.00;63746.28;692259;28;22420;-62
2022/10/01 00:23:03;;;;;;;968.38;903.35;;;;;;;-146.32;100.00;63746.28;691427;28;44119;-63
2022/10/01 00:23:24;;;;;;;967.28;902.45;;;;;;;-146.32;100.00;63746.28;690113;28;21543;-62
2022/10/01 00:23:46;;;;;;;967.13;902.30;;;;;;;-146.32;100.00;63746.28;690088;28;21489;-62
2022/10/01 00:24:09;;;;;;;967.72;902.85;;;;;;;-146.32;100.00;63746.28;689367;28;44353;-61
2022/10/01 00:24:32;;;;;;;960.80;896.20;;;;;;;-146.32;100.00;63746.28;688526;28;69412;-60
2022/10/01 00:24:53;;;;;;;962.72;898.10;;;;;;;-146.32;100.00;63746.28;691039;28;69674;-62
2022/10/01 00:25:14;;;;;;;961.75;897.13;;;;;;;-146.32;100.00;63746.28;692969;28;23391;-62
2022/10/01 00:25:35;;;;;;;959.85;895.38;;;;;;;-146.32;100.00;63746.28;693086;28;21528;-62
2022/10/01 00:26:07;;;;;;;967.35;902.63;;;;;;;-146.32;100.00;63746.28;692406;28;45227;-62
2022/10/01 00:26:31;;;;;;;969.25;904.38;;;;;;;-146.32;100.00;63746.28;689199;28;137392;-60
2022/10/01 00:26:52;;;;;;;966.20;901.50;;;;;;;-146.32;100.00;63746.28;688471;28;92206;-63
2022/10/01 00:27:13;;;;;;;969.83;904.72;;;;;;;-146.32;100.00;63746.28;689776;28;21521;-62
2022/10/01 00:27:35;;;;;;;966.15;901.25;;;;;;;-146.32;100.00;63746.28;686832;28;45275;-63
2022/10/01 00:27:56;;;;;;;973.00;907.90;;;;;;;-146.32;100.00;63746.28;687450;28;23494;-61
2022/10/01 00:28:18;;;;;;;964.95;900.25;;;;;;;-146.32;100.00;63746.28;687365;28;23684;-62
2022/10/01 00:28:40;;;;;;;964.67;899.95;;;;;;;-146.32;100.00;63746.28;689178;28;44393;-63
2022/10/01 00:29:03;;;;;;;963.55;898.88;;;;;;;-146.32;100.00;63746.28;689969;28;45225;-62
2022/10/01 00:29:24;;;;;;;966.85;902.25;;;;;;;-146.32;100.00;63746.28;691336;28;67552;-62
2022/10/01 00:29:47;;;;;;;960.63;896.22;;;;;;;-146.32;100.00;63746.28;692266;28;46285;-62
2022/10/01 00:30:09;;;;;;;966.75;902.13;;;;;;;-146.32;100.00;63746.28;692172;28;46325;-62
2022/10/01 00:30:30;;;;;;;971.78;906.90;;;;;;;-146.32;100.00;63746.28;692118;28;45291;-62
2022/10/01 00:30:51;;;;;;;964.38;899.72;;;;;;;-146.32;100.00;63746.28;692218;28;46350;-62
2022/10/01 00:31:14;;;;;;;963.40;898.75;;;;;;;-146.32;100.00;63746.28;691136;28;22423;-62
2022/10/01 00:31:36;;;;;;;960.35;895.65;;;;;;;-146.32;100.00;63746.28;689552;28;44154;-62
2022/10/01 00:31:59;;;;;;;970.80;905.83;;;;;;;-146.32;100.00;63746.28;688670;28;46311;-63
2022/10/01 00:32:20;;;;;;;963.25;898.58;;;;;;;-146.32;100.00;63746.28;688762;28;69579;-62
2022/10/01 00:32:41;;;;;;;963.05;898.28;;;;;;;-146.32;100.00;63746.28;689261;28;44320;-63
2022/10/01 00:33:06;;;;;;;971.20;905.45;;;;;;;-146.32;100.00;63746.28;692158;28;22397;-63
2022/10/01 00:33:27;;;;;;;969.22;904.15;;;;;;;-146.32;100.00;63746.28;689598;28;113478;-61
2022/10/01 00:33:50;;;;;;;966.85;902.00;;;;;;;-146.32;100.00;63746.28;692832;28;22517;-63
2022/10/01 00:34:13;;;;;;;965.72;900.97;;;;;;;-146.32;100.00;63746.28;691257;28;68328;-63
2022/10/01 00:34:35;;;;;;;965.05;900.35;;;;;;;-146.32;100.00;63746.28;691211;28;69406;-61
2022/10/01 00:34:56;;;;;;;968.33;903.55;;;;;;;-146.32;100.00;63746.28;693005;28;21637;-62
2022/10/01 00:35:18;;;;;;;968.67;903.85;;;;;;;-146.32;100.00;63746.28;695553;28;22008;-63
2022/10/01 00:35:39;;;;;;;966.53;901.72;;;;;;;-146.32;100.00;63746.28;693934;28;69235;-61
2022/10/01 00:36:01;;;;;;;954.97;890.58;;;;;;;-146.32;100.00;63746.28;695635;28;21609;-62
2022/10/01 00:36:22;;;;;;;959.55;894.95;;;;;;;-146.32;100.00;63746.28;692814;28;21297;-62
2022/10/01 00:36:43;;;;;;;954.70;890.30;;;;;;;-146.32;100.00;63746.28;690013;28;24014;-62
2022/10/01 00:37:09;;;;;;;963.13;898.13;;;;;;;-146.32;100.00;63746.28;688895;28;14890;-62
2022/10/01 00:37:31;;;;;;;964.10;899.30;;;;;;;-146.32;100.00;63746.28;688245;28;69398;-62
2022/10/01 00:37:52;;;;;;;959.00;894.45;;;;;;;-146.32;100.00;63746.28;689351;28;44369;-62
2022/10/01 00:38:14;;;;;;;958.90;894.30;;;;;;;-146.32;100.00;63746.28;691019;28;22404;-62
2022/10/01 00:38:36;;;;;;;960.70;896.05;;;;;;;-146.32;100.00;63746.28;692104;28;21595;-63
2022/10/01 00:38:59;;;;;;;960.67;896.08;;;;;;;-146.32;100.00;63746.28;691468;28;69433;-61
2022/10/01 00:39:21;;;;;;;963.08;898.33;;;;;;;-146.32;100.00;63746.28;691328;28;69440;-62
2022/10/01 00:39:43;;;;;;;956.10;891.65;;;;;;;-146.32;100.00;63746.28;692267;28;45232;-63
2022/10/01 00:40:06;;;;;;;960.95;896.38;;;;;;;-146.32;100.00;63746.28;692198;28;45239;-61
2022/10/01 00:40:30;;;;;;;958.67;894.28;;;;;;;-146.32;100.00;63746.28;693177;28;14798;-62
2022/10/01 00:40:51;;;;;;;964.05;899.55;;;;;;;-146.32;100.00;63746.28;691465;28;69395;-62
2022/10/01 00:41:13;;;;;;;965.45;900.75;;;;;;;-146.32;100.00;63746.28;692931;28;22398;-62
2022/10/01 00:41:35;;;;;;;965.25;900.55;;;;;;;-146.32;100.00;63746.28;692243;28;45231;-61
2022/10/01 00:41:56;;;;;;;963.95;899.17;;;;;;;-146.32;100.00;63746.28;691562;28;44371;-62
2022/10/01 00:42:21;;;;;;;966.53;901.65;;;;;;;-146.32;100.00;63746.28;692881;28;22395;-62
2022/10/01 00:42:42;;;;;;;957.78;893.17;;;;;;;-146.32;100.00;63746.28;689925;28;115616;-61
2022/10/01 00:43:18;;;;;;;958.67;894.13;;;;;;;-146.32;100.00;63746.28;693010;28;22502;-62
2022/10/01 00:43:42;;;;;;;968.53;903.67;;;;;;;-146.32;100.00;63746.28;689137;28;135976;-61
2022/10/01 00:44:32;;;;;;;962.63;897.97;;;;;;;-146.32;100.00;63746.28;690396;28;92093;-61
2022/10/01 00:44:54;;;;;;;967.72;902.90;;;;;;;-146.32;100.00;63746.28;686198;28;137434;-60
2022/10/01 00:45:15;;;;;;;967.05;902.13;;;;;;;-146.32;100.00;63746.28;689943;28;23498;-62
2022/10/01 00:45:37;;;;;;;972.72;907.63;;;;;;;-146.32;100.00;63746.28;690134;28;22490;-62
2022/10/01 00:46:02;;;;;;;969.30;904.40;;;;;;;-146.32;100.00;63746.28;690684;28;46639;-62
2022/10/01 00:46:27;;;;;;;963.97;899.28;;;;;;;-146.32;100.00;63746.28;692075;28;113652;-62
2022/10/01 00:46:48;;;;;;;968.50;903.60;;;;;;;-146.32;100.00;63746.28;692347;28;115234;-62
2022/10/01 00:47:18;;;;;;;971.58;906.47;;;;;;;-146.32;100.00;63746.28;691696;28;21496;-62
2022/10/01 00:47:42;;;;;;;956.35;891.75;;;;;;;-146.32;100.00;63746.28;688836;28;137698;-62
2022/10/01 00:48:03;;;;;;;959.60;895.00;;;;;;;-146.32;100.00;63746.28;691190;28;67491;-63
2022/10/01 00:48:27;;;;;;;960.05;895.38;;;;;;;-146.32;100.00;63746.28;692373;28;22249;-62
2022/10/01 00:48:55;;;;;;;963.95;899.08;;;;;;;-146.32;100.00;63746.28;690314;28;92110;-62
2022/10/01 00:49:19;;;;;;;955.35;890.95;;;;;;;-146.32;100.00;63746.28;688158;28;159194;-62
2022/10/01 00:49:40;;;;;;;960.85;896.22;;;;;;;-146.32;100.00;63746.28;691046;28;92365;-62
2022/10/01 00:50:07;;;;;;;962.63;897.92;;;;;;;-146.32;100.00;63746.28;692337;28;44391;-61
2022/10/01 00:50:31;;;;;;;960.20;895.80;;;;;;;-146.32;100.00;63746.28;688894;28;138017;-62
2022/10/01 00:50:52;;;;;;;960.15;895.75;;;;;;;-146.32;100.00;63746.28;690660;28;90708;-62
2022/10/01 00:51:14;;;;;;;961.22;896.72;;;;;;;-146.32;100.00;63746.28;693028;28;22404;-62
2022/10/01 00:51:39;;;;;;;959.47;894.90;;;;;;;-146.32;100.00;63746.28;693199;28;22276;-62
2022/10/01 00:52:03;;;;;;;958.88;894.28;;;;;;;-146.32;100.00;63746.28;688079;28;135909;-61
2022/10/01 00:52:27;;;;;;;963.35;898.60;;;;;;;-146.32;100.00;63746.28;691412;28;69595;-61
2022/10/01 00:52:53;;;;;;;954.60;890.22;;;;;;;-146.32;100.00;63746.28;689741;28;113662;-62
2022/10/01 00:53:14;;;;;;;960.25;895.60;;;;;;;-146.32;100.00;63746.28;689789;28;115017;-61
2022/10/01 00:53:37;;;;;;;951.78;887.38;;;;;;;-146.32;100.00;63746.28;692203;28;46318;-61
2022/10/01 00:54:01;;;;;;;944.17;880.03;;;;;;;-146.32;100.00;63746.28;692267;28;43576;-60
2022/10/01 00:54:30;;;;;;;948.35;884.15;;;;;;;-146.32;100.00;63746.28;689742;28;115976;-62
2022/10/01 00:54:54;;;;;;;939.38;875.55;;;;;;;-146.32;100.00;63746.28;688310;28;156481;-61
2022/10/01 00:55:19;;;;;;;946.45;882.40;;;;;;;-146.32;100.00;63746.28;689804;28;115564;-61
2022/10/01 00:55:41;;;;;;;941.38;877.40;;;;;;;-146.32;100.00;63746.28;689764;28;115042;-60
2022/10/01 00:56:05;;;;;;;935.75;872.05;;;;;;;-146.32;100.00;63746.28;691927;28;45086;-62
2022/10/01 00:56:29;;;;;;;942.22;878.20;;;;;;;-146.32;100.00;63746.28;690719;28;60190;-62
2022/10/01 00:56:52;;;;;;;943.92;879.88;;;;;;;-146.32;100.00;63746.28;688366;28;45271;-62
2022/10/01 00:57:14;;;;;;;945.60;881.17;;;;;;;-146.32;100.00;63746.28;688432;28;69443;-62
2022/10/01 00:57:36;;;;;;;936.40;872.55;;;;;;;-146.32;100.00;63746.28;689564;28;43804;-62
2022/10/01 00:57:57;;;;;;;942.50;878.53;;;;;;;-146.32;100.00;63746.28;689439;28;46335;-62
2022/10/01 00:58:19;;;;;;;947.78;883.53;;;;;;;-146.32;100.00;63746.28;691025;28;23412;-62
2022/10/01 00:58:41;;;;;;;949.95;885.63;;;;;;;-146.32;100.00;63746.28;692161;28;46021;-62
2022/10/01 00:59:02;;;;;;;932.70;869.00;;;;;;;-146.32;100.00;63746.28;692093;28;45402;-61
2022/10/01 00:59:25;;;;;;;935.13;871.40;;;;;;;-146.32;100.00;63746.28;693046;28;23465;-62
2022/10/01 00:59:46;;;;;;;950.40;886.25;;;;;;;-146.32;100.00;63746.28;691513;28;70462;-60
2022/10/01 01:00:11;;;;;;;960.10;895.67;;;;;;;-146.32;100.00;63746.28;691680;28;32798;-62
2022/10/01 01:00:32;;;;;;;960.80;896.25;;;;;;;-146.32;100.00;63746.28;690393;28;90434;-60
2022/10/01 01:00:55;;;;;;;954.00;889.67;;;;;;;-146.32;100.00;63746.28;692690;28;23459;-62
2022/10/01 01:01:17;;;;;;;959.35;894.83;;;;;;;-146.32;100.00;63746.28;690161;28;90294;-62
2022/10/01 01:01:38;;;;;;;955.35;891.00;;;;;;;-146.32;100.00;63746.28;691895;28;46397;-61
2022/10/01 01:02:00;;;;;;;946.83;882.67;;;;;;;-146.32;100.00;63746.28;691975;28;24308;-61
2022/10/01 01:02:23;;;;;;;953.05;888.63;;;;;;;-146.32;100.00;63746.28;692959;28;21537;-62
2022/10/01 01:02:44;;;;;;;954.30;889.90;;;;;;;-146.32;100.00;63746.28;690520;28;92315;-60
2022/10/01 01:03:05;;;;;;;945.97;881.85;;;;;;;-146.32;100.00;63746.28;691950;28;46325;-62
2022/10/01 01:03:27;;;;;;;952.88;888.45;;;;;;;-146.32;100.00;63746.28;692880;28;21225;-62
2022/10/01 01:03:48;;;;;;;949.22;885.05;;;;;;;-146.32;100.00;63746.28;693011;28;22396;-62
2022/10/01 01:04:16;;;;;;;950.88;886.78;;;;;;;-146.32;100.00;63746.28;692775;28;22452;-63
2022/10/01 01:04:38;;;;;;;949.05;884.97;;;;;;;-146.32;100.00;63746.28;688848;28;138074;-62
2022/10/01 01:05:00;;;;;;;947.03;882.97;;;;;;;-146.32;100.00;63746.28;691405;28;69449;-62
2022/10/01 01:05:23;;;;;;;942.28;878.35;;;;;;;-146.32;100.00;63746.28;692817;28;23522;-62
2022/10/01 01:05:46;;;;;;;950.22;886.08;;;;;;;-146.32;100.00;63746.28;691413;28;67444;-61
2022/10/01 01:06:08;;;;;;;955.15;890.70;;;;;;;-146.32;100.00;63746.28;690588;28;92730;-61
2022/10/01 01:06:30;;;;;;;944.17;880.17;;;;;;;-146.32;100.00;63746.28;692097;28;45181;-61
2022/10/01 01:06:56;;;;;;;951.65;887.33;;;;;;;-146.32;100.00;63746.28;692311;28;21545;-62
2022/10/01 01:07:18;;;;;;;960.28;895.17;;;;;;;-146.32;100.00;63746.28;688529;28;136093;-62
2022/10/01 01:07:44;;;;;;;947.35;883.10;;;;;;;-146.32;100.00;63746.28;693089;28;14907;-63
2022/10/01 01:08:06;;;;;;;951.92;887.67;;;;;;;-146.32;100.00;63746.28;690650;28;88797;-60
2022/10/01 01:08:28;;;;;;;950.97;886.83;;;;;;;-146.32;100.00;63746.28;692080;28;45216;-60
2022/10/01 01:08:53;;;;;;;964.67;900.13;;;;;;;-146.32;100.00;63746.28;692039;28;46343;-61
2022/10/01 01:09:15;;;;;;;964.40;899.20;;;;;;;-146.32;100.00;63746.28;685961;28;113600;-63
2022/10/01 01:09:39;;;;;;;952.10;887.35;;;;;;;-146.32;100.00;63746.28;691896;28;44342;-63
2022/10/01 01:10:02;;;;;;;956.63;892.33;;;;;;;-146.32;100.00;63746.28;690157;28;92311;-60
2022/10/01 01:10:29;;;;;;;953.97;889.75;;;;;;;-146.32;100.00;63746.28;690107;28;43501;-63
2022/10/01 01:10:58;;;;;;;953.28;889.08;;;;;;;-146.32;100.00;63746.28;689025;28;137959;-62
2022/10/01 01:11:23;;;;;;;954.05;889.83;;;;;;;-146.32;100.00;63746.28;688839;28;136104;-62
2022/10/01 01:11:50;;;;;;;964.38;899.70;;;;;;;-146.32;100.00;63746.28;689809;28;113524;-62
2022/10/01 01:12:21;;;;;;;958.58;894.00;;;;;;;-146.32;100.00;63746.28;687668;28;156780;-62
2022/10/01 01:12:53;;;;;;;957.08;892.72;;;;;;;-146.32;100.00;63746.28;688891;28;136018;-62
2022/10/01 01:13:18;;;;;;;957.22;892.72;;;;;;;-146.32;100.00;63746.28;688831;28;135902;-62
2022/10/01 01:13:49;;;;;;;956.63;892.20;;;;;;;-146.32;100.00;63746.28;688919;28;138071;-62
2022/10/01 01:14:15;;;;;;;955.20;890.78;;;;;;;-146.32;100.00;63746.28;688890;28;137605;-62
2022/10/01 01:14:41;;;;;;;956.00;891.63;;;;;;;-146.32;100.00;63746.28;686323;28;138026;-62
2022/10/01 01:15:10;;;;;;;961.13;896.63;;;;;;;-146.32;100.00;63746.28;688919;28;58265;-60
2022/10/01 01:15:36;;;;;;;954.22;889.83;;;;;;;-146.32;100.00;63746.28;686221;28;137390;-62
2022/10/01 01:16:04;;;;;;;961.55;897.00;;;;;;;-146.32;100.00;63746.28;686866;28;115951;-62
2022/10/01 01:16:33;;;;;;;931.47;867.90;;;;;;;-146.32;100.00;63746.28;687226;28;137881;-62
2022/10/01 01:16:58;;;;;;;944.47;880.58;;;;;;;-146.32;100.00;63746.28;687854;28;136262;-61
2022/10/01 01:17:27;;;;;;;949.22;885.15;;;;;;;-146.32;100.00;63746.28;688819;28;136417;-62
2022/10/01 01:17:53;;;;;;;951.22;887.05;;;;;;;-146.32;100.00;63746.28;688140;28;159160;-62
2022/10/01 01:18:20;;;;;;;963.00;898.40;;;;;;;-146.32;100.00;63746.28;688957;28;136288;-62
2022/10/01 01:18:47;;;;;;;963.75;899.00;;;;;;;-146.32;100.00;63746.28;688942;28;139396;-62
2022/10/01 01:19:22;;;;;;;959.88;895.28;;;;;;;-146.32;100.00;63746.28;689006;28;136253;-62
2022/10/01 01:19:55;;;;;;;945.50;881.38;;;;;;;-146.32;100.00;63746.28;688945;28;136263;-62
2022/10/01 01:20:34;;;;;;;964.17;899.45;;;;;;;-146.32;100.00;63746.28;688989;28;138853;-61
2022/10/01 01:21:08;;;;;;;959.22;894.67;;;;;;;-146.32;100.00;63746.28;688138;28;160739;-61
2022/10/01 01:21:30;;;;;;;958.53;893.85;;;;;;;-146.32;100.00;63746.28;688826;28;137989;-61
2022/10/01 01:21:53;;;;;;;948.95;884.60;;;;;;;-146.32;100.00;63746.28;691312;28;46562;-62
2022/10/01 01:22:16;;;;;;;940.72;876.58;;;;;;;-146.32;100.00;63746.28;691334;28;69427;-62
2022/10/01 01:22:44;;;;;;;935.10;871.22;;;;;;;-146.32;100.00;63746.28;691109;28;69333;-62
2022/10/01 01:23:23;;;;;;;952.38;888.00;;;;;;;-146.32;100.00;63746.28;689106;28;138227;-62
2022/10/01 01:24:05;;;;;;;946.83;882.63;;;;;;;-146.32;100.00;63746.28;689011;28;138387;-62
2022/10/01 01:24:35;;;;;;;955.92;891.45;;;;;;;-146.32;100.00;63746.28;686243;28;135989;-62
2022/10/01 01:24:59;;;;;;;947.60;883.35;;;;;;;-146.32;100.00;63746.28;686327;28;137511;-61
2022/10/01 01:25:21;;;;;;;960.92;896.17;;;;;;;-146.32;100.00;63746.28;687724;28;92273;-62
2022/10/01 01:25:46;;;;;;;953.90;889.47;;;;;;;-146.32;100.00;63746.28;690818;28;46364;-62
2022/10/01 01:26:15;;;;;;;938.83;875.03;;;;;;;-146.32;100.00;63746.28;689538;28;113546;-62
2022/10/01 01:26:44;;;;;;;940.50;876.58;;;;;;;-146.32;100.00;63746.28;688582;28;137580;-62
2022/10/01 01:27:15;;;;;;;950.15;885.58;;;;;;;-146.32;100.00;63746.28;687142;28;137197;-63
2022/10/01 01:27:39;;;;;;;949.65;885.42;;;;;;;-146.32;100.00;63746.28;688613;28;137292;-61
2022/10/01 01:28:07;;;;;;;959.20;894.45;;;;;;;-146.32;100.00;63746.28;692233;28;69447;-62
2022/10/01 01:28:31;;;;;;;953.15;888.78;;;;;;;-146.32;100.00;63746.28;691389;28;137839;-62
2022/10/01 01:28:56;;;;;;;956.42;891.83;;;;;;;-146.32;100.00;63746.28;692444;28;90313;-63
2022/10/01 01:29:20;;;;;;;953.92;889.38;;;;;;;-146.32;100.00;63746.28;689377;28;115362;-62
2022/10/01 01:29:45;;;;;;;946.72;882.47;;;;;;;-146.32;100.00;63746.28;689783;28;114926;-62
2022/10/01 01:30:09;;;;;;;946.60;882.25;;;;;;;-146.32;100.00;63746.28;689832;28;115630;-63
2022/10/01 01:30:31;;;;;;;959.70;895.00;;;;;;;-146.32;100.00;63746.28;690413;28;90307;-62
2022/10/01 01:30:56;;;;;;;945.75;881.63;;;;;;;-146.32;100.00;63746.28;692088;28;46338;-63
2022/10/01 01:31:23;;;;;;;941.72;877.72;;;;;;;-146.32;100.00;63746.28;690432;28;90364;-63
2022/10/01 01:31:45;;;;;;;941.70;877.85;;;;;;;-146.32;100.00;63746.28;689024;28;137680;-62
2022/10/01 01:32:11;;;;;;;955.40;891.05;;;;;;;-146.32;100.00;63746.28;691215;28;46359;-61
2022/10/01 01:32:39;;;;;;;955.13;890.63;;;;;;;-146.32;100.00;63746.28;689529;28;114982;-62
2022/10/01 01:33:03;;;;;;;966.38;901.58;;;;;;;-146.32;100.00;63746.28;688935;28;137913;-62
2022/10/01 01:33:26;;;;;;;960.20;895.60;;;;;;;-146.32;100.00;63746.28;690515;28;90288;-62
2022/10/01 01:33:49;;;;;;;947.42;883.22;;;;;;;-146.32;100.00;63746.28;691988;28;46076;-62
2022/10/01 01:34:13;;;;;;;952.45;888.10;;;;;;;-146.32;100.00;63746.28;690388;28;93126;-62
2022/10/01 01:34:34;;;;;;;944.83;880.75;;;;;;;-146.32;100.00;63746.28;690229;28;92320;-62
2022/10/01 01:34:59;;;;;;;951.92;887.72;;;;;;;-146.32;100.00;63746.28;692036;28;45290;-62
2022/10/01 01:35:24;;;;;;;947.67;883.67;;;;;;;-146.32;100.00;63746.28;688670;28;137606;-60
2022/10/01 01:35:48;;;;;;;952.92;888.78;;;;;;;-146.32;100.00;63746.28;689594;28;113676;-62
2022/10/01 01:36:15;;;;;;;963.00;898.50;;;;;;;-146.32;100.00;63746.28;690484;28;90313;-62
2022/10/01 01:36:36;;;;;;;953.97;889.67;;;;;;;-146.32;100.00;63746.28;688871;28;137954;-63
2022/10/01 01:37:02;;;;;;;954.70;890.20;;;;;;;-146.32;100.00;63746.28;690687;28;23536;-63
2022/10/01 01:37:26;;;;;;;958.63;893.72;;;;;;;-146.32;100.00;63746.28;689213;28;115173;-61
2022/10/01 01:37:51;;;;;;;941.72;877.83;;;;;;;-146.32;100.00;63746.28;690606;28;92488;-62
2022/10/01 01:38:16;;;;;;;935.25;871.42;;;;;;;-146.32;100.00;63746.28;688665;28;136145;-63
2022/10/01 01:38:40;;;;;;;940.78;876.80;;;;;;;-146.32;100.00;63746.28;690372;28;92521;-62
2022/10/01 01:39:03;;;;;;;945.25;881.20;;;;;;;-146.32;100.00;63746.28;690417;28;92116;-63
2022/10/01 01:39:26;;;;;;;947.75;883.50;;;;;;;-146.32;100.00;63746.28;691123;28;67359;-62
2022/10/01 01:39:50;;;;;;;932.05;868.42;;;;;;;-146.32;100.00;63746.28;691234;28;70195;-62
2022/10/01 01:40:13;;;;;;;955.60;891.10;;;;;;;-146.32;100.00;63746.28;688396;28;114068;-60
2022/10/01 01:40:36;;;;;;;953.95;889.42;;;;;;;-146.32;100.00;63746.28;691050;28;69587;-63
2022/10/01 01:41:01;;;;;;;950.63;886.40;;;;;;;-146.32;100.00;63746.28;691557;28;46425;-62
2022/10/01 01:41:24;;;;;;;943.60;879.55;;;;;;;-146.32;100.00;63746.28;686027;28;139069;-62
2022/10/01 01:41:48;;;;;;;930.33;866.70;;;;;;;-146.32;100.00;63746.28;689452;28;44256;-62
2022/10/01 01:42:15;;;;;;;939.70;875.80;;;;;;;-146.32;100.00;63746.28;688317;28;134892;-62
2022/10/01 01:42:39;;;;;;;940.35;876.38;;;;;;;-146.32;100.00;63746.28;689074;28;138185;-63
2022/10/01 01:43:04;;;;;;;951.85;887.53;;;;;;;-146.32;100.00;63746.28;689634;28;115199;-62
2022/10/01 01:43:28;;;;;;;951.40;887.10;;;;;;;-146.32;100.00;63746.28;689609;28;115058;-62
2022/10/01 01:43:52;;;;;;;949.20;885.05;;;;;;;-146.32;100.00;63746.28;692241;28;92291;-62
2022/10/01 01:44:16;;;;;;;951.28;887.10;;;;;;;-146.32;100.00;63746.28;693986;28;68292;-63
2022/10/01 01:44:41;;;;;;;946.58;882.55;;;;;;;-146.32;100.00;63746.28;692447;28;113593;-62